First I — 3ESJ5 — position and weather

sailwx.info

Track history (hours):
 
Tides and Currents Weather Stations Pressure Air Temp Water Temp Dewpoint Dewpoint Depression Visibility Wind Speed Wind Dir Waves Ship Positions

First I

Last reported at 2015-May-06 00:33 UTC. Time now 2015-May-06 01:23 UTC.
Position N 48°31' W 125°20'.

Length 190 m; draft 6.1 m.

Type: Cargo ship. MMSI: 370317000.

Date/timePositionNaut miles runAvg speedWind from/ knotsBaromVisibWave heightAir tempDewpointWater temp
2015-May-06 00:33N 48°31' W 125°20'9 9.4
2015-May-05 23:33N 48°30' W 125°06'9 8.9
2015-May-05 22:33N 48°31' W 124°53'9 9.3
2015-May-05 21:34N 48°30' W 124°39'9 9.4
2015-May-05 20:33N 48°26' W 124°26'1111.2
2015-May-05 19:34N 48°22' W 124°10'1211.7
2015-May-05 18:32N 48°18' W 123°53'1414.3
2015-May-05 17:32N 48°16' W 123°32'1010.4
2015-May-05 16:33N 48°23' W 123°21'1110.6
2015-May-05 15:33N 48°32' W 123°13'1212.1
2015-May-05 14:33N 48°44' W 123°09'9 8.7
2015-May-05 13:33N 48°52' W 123°06'1313.0
2015-May-05 12:33N 49°01' W 123°20'1111.2
2015-May-05 11:33N 49°13' W 123°22'1010.1
2015-May-05 10:33N 49°19' W 123°10'3 3.2
2015-May-05 09:33N 49°18' W 123°05'0 0.1
2015-May-05 08:32N 49°18' W 123°05'0 0.0
2015-May-05 07:32N 49°18' W 123°05'0 0.1
2015-May-05 06:32N 49°18' W 123°05'0 0.1
2015-May-05 05:32N 49°18' W 123°05'0 0.1
2015-May-05 04:32N 49°18' W 123°05'0 0.0
2015-May-05 03:32N 49°18' W 123°05'0 0.2
2015-May-05 02:32N 49°18' W 123°05'7 6.8
2015-May-05 01:34N 49°18' W 123°15'1313.0
2015-May-05 00:34N 49°06' W 123°20'1313.2
2015-May-04 23:33N 48°56' W 123°07'1312.7
2015-May-04 22:33N 48°51' W 122°49'4 3.6
2015-May-04 21:30N 48°50' W 122°43'0 0.0
2015-May-04 20:30N 48°50' W 122°43'0 0.0
2015-May-04 19:30N 48°50' W 122°43'0 0.0
2015-May-04 18:18N 48°50' W 122°43'0 0.0
2015-May-04 17:24N 48°50' W 122°43'0 0.0
2015-May-04 16:18N 48°50' W 122°43'0 0.0
2015-May-04 15:30N 48°50' W 122°43'0 0.0
2015-May-04 14:33N 48°50' W 122°43'0 0.0
2015-May-04 13:33N 48°50' W 122°43'0 0.0
2015-May-04 12:30N 48°50' W 122°43'0 0.0
2015-May-04 11:33N 48°50' W 122°43'0 0.0
2015-May-04 10:30N 48°50' W 122°43'0 0.0
2015-May-04 09:27N 48°50' W 122°43'0 0.0
2015-May-04 08:30N 48°50' W 122°43'0 0.0
2015-May-04 07:30N 48°50' W 122°43'0 0.0
2015-May-04 06:30N 48°50' W 122°43'0 0.0
2015-May-04 05:30N 48°50' W 122°43'0 0.0
2015-May-04 04:30N 48°50' W 122°43'0 0.0
2015-May-04 03:30N 48°50' W 122°43'0 0.0
2015-May-04 02:30N 48°50' W 122°43'0 0.0
2015-May-04 01:30N 48°50' W 122°43'0 0.0
2015-May-04 00:30N 48°50' W 122°43'0 0.0
2015-May-03 23:30N 48°50' W 122°43'0 0.0
2015-May-03 22:24N 48°50' W 122°43'0 0.0
2015-May-03 21:30N 48°50' W 122°43'0 0.0
2015-May-03 20:24N 48°50' W 122°43'0 0.0
2015-May-03 19:18N 48°50' W 122°43'0 0.0
2015-May-03 18:24N 48°50' W 122°43'0 0.0
2015-May-03 17:18N 48°50' W 122°43'0 0.0
2015-May-03 16:24N 48°50' W 122°43'0 0.0
2015-May-03 15:24N 48°50' W 122°43'0 0.0
2015-May-03 14:30N 48°50' W 122°43'0 0.0
2015-May-03 13:15N 48°50' W 122°43'0 0.0
2015-May-03 12:09N 48°50' W 122°43'0 0.0
2015-May-03 11:33N 48°50' W 122°43'0 0.0
2015-May-03 10:24N 48°50' W 122°43'0 0.0
2015-May-03 08:24N 48°50' W 122°43'0 0.0
2015-May-03 02:24N 48°50' W 122°43'0 0.0
2015-May-02 22:24N 48°50' W 122°43'0 0.0
2015-May-02 21:12N 48°50' W 122°43'0 0.0
2015-May-02 17:30N 48°50' W 122°43'0 0.0
2015-May-02 09:15N 48°50' W 122°43'0 0.0
2015-May-02 03:12N 48°50' W 122°43'0 0.0
2015-May-01 23:30N 48°50' W 122°43'0 0.0
2015-May-01 21:06N 48°50' W 122°43'0 0.0
2015-May-01 19:12N 48°50' W 122°43'0 0.0
2015-May-01 17:09N 48°50' W 122°43'0 0.0
2015-May-01 16:30N 48°50' W 122°43'0 0.0
2015-May-01 15:30N 48°50' W 122°43'0 0.0
2015-May-01 14:30N 48°50' W 122°43'0 0.0
2015-May-01 13:30N 48°50' W 122°43'0 0.0
2015-May-01 12:30N 48°50' W 122°43'0 0.0
2015-May-01 11:33N 48°50' W 122°43'0 0.0
2015-May-01 10:33N 48°50' W 122°43'0 0.0
2015-May-01 09:33N 48°50' W 122°43'0 0.0
2015-May-01 08:30N 48°50' W 122°43'0 0.0
2015-May-01 07:30N 48°50' W 122°43'0 0.0
2015-May-01 06:30N 48°50' W 122°43'0 0.0
2015-May-01 05:30N 48°50' W 122°43'0 0.0
2015-May-01 04:30N 48°50' W 122°43'0 0.0
2015-May-01 03:33N 48°50' W 122°43'0 0.0
2015-May-01 02:33N 48°50' W 122°43'0 0.0
2015-May-01 01:33N 48°50' W 122°43'0 0.0
2015-May-01 00:33N 48°50' W 122°43'0 0.0
2015-Apr-30 23:27N 48°50' W 122°43'0 0.0
2015-Apr-30 22:30N 48°50' W 122°43'0 0.0
2015-Apr-30 21:30N 48°50' W 122°43'0 0.0
2015-Apr-30 20:30N 48°50' W 122°43'0 0.0
2015-Apr-30 19:30N 48°50' W 122°43'0 0.0
2015-Apr-30 18:30N 48°50' W 122°43'0 0.0
2015-Apr-30 17:30N 48°50' W 122°43'0 0.0
2015-Apr-30 16:30N 48°50' W 122°43'0 0.0
2015-Apr-30 15:33N 48°50' W 122°43'0 0.0
2015-Apr-30 14:33N 48°50' W 122°43'0 0.0
2015-Apr-30 13:30N 48°50' W 122°43'0 0.0
2015-Apr-30 12:33N 48°50' W 122°43'0 0.0
2015-Apr-30 11:33N 48°50' W 122°43'0 0.0
2015-Apr-30 10:33N 48°50' W 122°43'0 0.0
2015-Apr-30 09:33N 48°50' W 122°43'0 0.0
2015-Apr-30 08:33N 48°50' W 122°43'0 0.0
2015-Apr-30 07:33N 48°50' W 122°43'0 0.0
2015-Apr-30 06:33N 48°50' W 122°43'0 0.0
2015-Apr-30 05:27N 48°50' W 122°43'0 0.0
2015-Apr-30 04:30N 48°50' W 122°43'0 0.0
2015-Apr-30 03:30N 48°50' W 122°43'0 0.0
2015-Apr-30 02:33N 48°50' W 122°43'0 0.0
2015-Apr-30 01:12N 48°50' W 122°43'0 0.0
2015-Apr-30 00:24N 48°50' W 122°43'0 0.0
2015-Apr-29 23:30N 48°50' W 122°43'0 0.0
2015-Apr-29 22:18N 48°50' W 122°43'0 0.0
2015-Apr-29 21:27N 48°50' W 122°43'0 0.0
2015-Apr-29 20:18N 48°50' W 122°43'0 0.0
2015-Apr-29 19:30N 48°50' W 122°43'0 0.0
2015-Apr-29 18:30N 48°50' W 122°43'0 0.0
2015-Apr-29 17:33N 48°50' W 122°43'0 0.0
2015-Apr-29 16:27N 48°50' W 122°43'0 0.0
2015-Apr-29 15:30N 48°50' W 122°43'0 0.0
2015-Apr-29 14:30N 48°50' W 122°43'0 0.0
2015-Apr-29 13:33N 48°50' W 122°43'0 0.0
2015-Apr-29 12:33N 48°50' W 122°43'0 0.0
2015-Apr-29 11:33N 48°50' W 122°43'0 0.0
2015-Apr-29 10:30N 48°50' W 122°43'0 0.0
2015-Apr-29 09:27N 48°50' W 122°43'0 0.0
2015-Apr-29 08:33N 48°50' W 122°43'0 0.0
2015-Apr-29 07:33N 48°50' W 122°43'0 0.0
2015-Apr-29 06:33N 48°50' W 122°43'0 0.0
2015-Apr-29 05:30N 48°50' W 122°43'0 0.0
2015-Apr-29 04:33N 48°50' W 122°43'0 0.0
2015-Apr-29 03:33N 48°50' W 122°43'0 0.0
2015-Apr-29 02:09N 48°50' W 122°43'0 0.0
2015-Apr-29 00:33N 48°50' W 122°43'0 0.0
2015-Apr-28 23:33N 48°50' W 122°43'0 0.0
2015-Apr-28 22:27N 48°50' W 122°43'0 0.0
2015-Apr-28 21:18N 48°50' W 122°43'0 0.0
2015-Apr-28 20:30N 48°50' W 122°43'0 0.0
2015-Apr-28 19:24N 48°50' W 122°43'0 0.0
2015-Apr-28 18:18N 48°50' W 122°43'0 0.0
2015-Apr-28 13:24N 48°50' W 122°43'0 0.0
2015-Apr-28 12:24N 48°50' W 122°43'0 0.0
2015-Apr-28 11:06N 48°50' W 122°43'0 0.0
2015-Apr-28 10:33N 48°50' W 122°43'0 0.0
2015-Apr-28 08:18N 48°50' W 122°43'0 0.0
2015-Apr-28 06:06N 48°50' W 122°43'0 0.0
2015-Apr-28 05:30N 48°50' W 122°43'0 0.0
2015-Apr-28 04:24N 48°50' W 122°43'0 0.0
2015-Apr-28 02:30N 48°50' W 122°43'0 0.0
2015-Apr-27 17:21N 48°50' W 122°43'0 0.0
2015-Apr-27 08:18N 48°50' W 122°43'0 0.0
2015-Apr-27 07:24N 48°50' W 122°43'0 0.0
2015-Apr-27 05:24N 48°50' W 122°43'0 0.0
2015-Apr-27 02:30N 48°50' W 122°43'1 0.7
2015-Apr-27 01:33N 48°50' W 122°44'0 0.1
2015-Apr-27 00:31N 48°50' W 122°44'0 0.1
2015-Apr-26 23:28N 48°50' W 122°44'0 0.4
2015-Apr-26 22:22N 48°50' W 122°44'0 0.2
2015-Apr-26 21:28N 48°50' W 122°43'0 0.0
2015-Apr-26 20:28N 48°50' W 122°43'0 0.0
2015-Apr-26 19:04N 48°50' W 122°43'0 0.0
2015-Apr-26 18:22N 48°50' W 122°43'0 0.0
2015-Apr-26 17:28N 48°50' W 122°43'0 0.0
2015-Apr-26 16:28N 48°50' W 122°43'0 0.0
2015-Apr-26 15:28N 48°50' W 122°43'0 0.0
2015-Apr-26 14:28N 48°50' W 122°43'0 0.0
2015-Apr-26 13:28N 48°50' W 122°43'0 0.0
2015-Apr-26 12:28N 48°50' W 122°43'0 0.0
2015-Apr-26 11:25N 48°50' W 122°43'0 0.0
2015-Apr-26 10:28N 48°50' W 122°43'0 0.0
2015-Apr-26 09:31N 48°50' W 122°43'0 0.0
2015-Apr-26 08:31N 48°50' W 122°43'0 0.0
2015-Apr-26 07:31N 48°50' W 122°43'0 0.0
2015-Apr-26 06:28N 48°50' W 122°43'0 0.0
2015-Apr-26 05:33N 48°50' W 122°43'3 3.3
2015-Apr-26 04:33N 48°47' W 122°45'1211.8
2015-Apr-26 03:34N 48°36' W 122°45'1212.2
2015-Apr-26 02:33N 48°24' W 122°49'1312.5
2015-Apr-26 01:33N 48°17' W 123°05'1111.5
2015-Apr-26 00:34N 48°12' W 123°21'  
Track history (hours):
 
Tides and Currents Weather Stations Pressure Air Temp Water Temp Dewpoint Dewpoint Depression Visibility Wind Speed Wind Dir Waves Ship Positions

First I

Last reported at 2015-May-06 00:33 UTC. Time now 2015-May-06 01:23 UTC.
Position N 48°31' W 125°20'.

Length 190 m; draft 6.1 m.

Type: Cargo ship. MMSI: 370317000.

Date/timePositionNaut miles runAvg speedWind from/ knotsBaromVisibWave heightAir tempDewpointWater temp
2015-May-06 00:33N 48°31' W 125°20'9 9.4
2015-May-05 23:33N 48°30' W 125°06'9 8.9
2015-May-05 22:33N 48°31' W 124°53'9 9.3
2015-May-05 21:34N 48°30' W 124°39'9 9.4
2015-May-05 20:33N 48°26' W 124°26'1111.2
2015-May-05 19:34N 48°22' W 124°10'1211.7
2015-May-05 18:32N 48°18' W 123°53'1414.3
2015-May-05 17:32N 48°16' W 123°32'1010.4
2015-May-05 16:33N 48°23' W 123°21'1110.6
2015-May-05 15:33N 48°32' W 123°13'1212.1
2015-May-05 14:33N 48°44' W 123°09'9 8.7
2015-May-05 13:33N 48°52' W 123°06'1313.0
2015-May-05 12:33N 49°01' W 123°20'1111.2
2015-May-05 11:33N 49°13' W 123°22'1010.1
2015-May-05 10:33N 49°19' W 123°10'3 3.2
2015-May-05 09:33N 49°18' W 123°05'0 0.1
2015-May-05 08:32N 49°18' W 123°05'0 0.0
2015-May-05 07:32N 49°18' W 123°05'0 0.1
2015-May-05 06:32N 49°18' W 123°05'0 0.1
2015-May-05 05:32N 49°18' W 123°05'0 0.1
2015-May-05 04:32N 49°18' W 123°05'0 0.0
2015-May-05 03:32N 49°18' W 123°05'0 0.2
2015-May-05 02:32N 49°18' W 123°05'7 6.8
2015-May-05 01:34N 49°18' W 123°15'1313.0
2015-May-05 00:34N 49°06' W 123°20'1313.2
2015-May-04 23:33N 48°56' W 123°07'1312.7
2015-May-04 22:33N 48°51' W 122°49'4 3.6
2015-May-04 21:30N 48°50' W 122°43'0 0.0
2015-May-04 20:30N 48°50' W 122°43'0 0.0
2015-May-04 19:30N 48°50' W 122°43'0 0.0
2015-May-04 18:18N 48°50' W 122°43'0 0.0
2015-May-04 17:24N 48°50' W 122°43'0 0.0
2015-May-04 16:18N 48°50' W 122°43'0 0.0
2015-May-04 15:30N 48°50' W 122°43'0 0.0
2015-May-04 14:33N 48°50' W 122°43'0 0.0
2015-May-04 13:33N 48°50' W 122°43'0 0.0
2015-May-04 12:30N 48°50' W 122°43'0 0.0
2015-May-04 11:33N 48°50' W 122°43'0 0.0
2015-May-04 10:30N 48°50' W 122°43'0 0.0
2015-May-04 09:27N 48°50' W 122°43'0 0.0
2015-May-04 08:30N 48°50' W 122°43'0 0.0
2015-May-04 07:30N 48°50' W 122°43'0 0.0
2015-May-04 06:30N 48°50' W 122°43'0 0.0
2015-May-04 05:30N 48°50' W 122°43'0 0.0
2015-May-04 04:30N 48°50' W 122°43'0 0.0
2015-May-04 03:30N 48°50' W 122°43'0 0.0
2015-May-04 02:30N 48°50' W 122°43'0 0.0
2015-May-04 01:30N 48°50' W 122°43'0 0.0
2015-May-04 00:30N 48°50' W 122°43'0 0.0
2015-May-03 23:30N 48°50' W 122°43'0 0.0
2015-May-03 22:24N 48°50' W 122°43'0 0.0
2015-May-03 21:30N 48°50' W 122°43'0 0.0
2015-May-03 20:24N 48°50' W 122°43'0 0.0
2015-May-03 19:18N 48°50' W 122°43'0 0.0
2015-May-03 18:24N 48°50' W 122°43'0 0.0
2015-May-03 17:18N 48°50' W 122°43'0 0.0
2015-May-03 16:24N 48°50' W 122°43'0 0.0
2015-May-03 15:24N 48°50' W 122°43'0 0.0
2015-May-03 14:30N 48°50' W 122°43'0 0.0
2015-May-03 13:15N 48°50' W 122°43'0 0.0
2015-May-03 12:09N 48°50' W 122°43'0 0.0
2015-May-03 11:33N 48°50' W 122°43'0 0.0
2015-May-03 10:24N 48°50' W 122°43'0 0.0
2015-May-03 08:24N 48°50' W 122°43'0 0.0
2015-May-03 02:24N 48°50' W 122°43'0 0.0
2015-May-02 22:24N 48°50' W 122°43'0 0.0
2015-May-02 21:12N 48°50' W 122°43'0 0.0
2015-May-02 17:30N 48°50' W 122°43'0 0.0
2015-May-02 09:15N 48°50' W 122°43'0 0.0
2015-May-02 03:12N 48°50' W 122°43'0 0.0
2015-May-01 23:30N 48°50' W 122°43'0 0.0
2015-May-01 21:06N 48°50' W 122°43'0 0.0
2015-May-01 19:12N 48°50' W 122°43'0 0.0
2015-May-01 17:09N 48°50' W 122°43'0 0.0
2015-May-01 16:30N 48°50' W 122°43'0 0.0
2015-May-01 15:30N 48°50' W 122°43'0 0.0
2015-May-01 14:30N 48°50' W 122°43'0 0.0
2015-May-01 13:30N 48°50' W 122°43'0 0.0
2015-May-01 12:30N 48°50' W 122°43'0 0.0
2015-May-01 11:33N 48°50' W 122°43'0 0.0
2015-May-01 10:33N 48°50' W 122°43'0 0.0
2015-May-01 09:33N 48°50' W 122°43'0 0.0
2015-May-01 08:30N 48°50' W 122°43'0 0.0
2015-May-01 07:30N 48°50' W 122°43'0 0.0
2015-May-01 06:30N 48°50' W 122°43'0 0.0
2015-May-01 05:30N 48°50' W 122°43'0 0.0
2015-May-01 04:30N 48°50' W 122°43'0 0.0
2015-May-01 03:33N 48°50' W 122°43'0 0.0
2015-May-01 02:33N 48°50' W 122°43'0 0.0
2015-May-01 01:33N 48°50' W 122°43'0 0.0
2015-May-01 00:33N 48°50' W 122°43'0 0.0
2015-Apr-30 23:27N 48°50' W 122°43'0 0.0
2015-Apr-30 22:30N 48°50' W 122°43'0 0.0
2015-Apr-30 21:30N 48°50' W 122°43'0 0.0
2015-Apr-30 20:30N 48°50' W 122°43'0 0.0
2015-Apr-30 19:30N 48°50' W 122°43'0 0.0
2015-Apr-30 18:30N 48°50' W 122°43'0 0.0
2015-Apr-30 17:30N 48°50' W 122°43'0 0.0
2015-Apr-30 16:30N 48°50' W 122°43'0 0.0
2015-Apr-30 15:33N 48°50' W 122°43'0 0.0
2015-Apr-30 14:33N 48°50' W 122°43'0 0.0
2015-Apr-30 13:30N 48°50' W 122°43'0 0.0
2015-Apr-30 12:33N 48°50' W 122°43'0 0.0
2015-Apr-30 11:33N 48°50' W 122°43'0 0.0
2015-Apr-30 10:33N 48°50' W 122°43'0 0.0
2015-Apr-30 09:33N 48°50' W 122°43'0 0.0
2015-Apr-30 08:33N 48°50' W 122°43'0 0.0
2015-Apr-30 07:33N 48°50' W 122°43'0 0.0
2015-Apr-30 06:33N 48°50' W 122°43'0 0.0
2015-Apr-30 05:27N 48°50' W 122°43'0 0.0
2015-Apr-30 04:30N 48°50' W 122°43'0 0.0
2015-Apr-30 03:30N 48°50' W 122°43'0 0.0
2015-Apr-30 02:33N 48°50' W 122°43'0 0.0
2015-Apr-30 01:12N 48°50' W 122°43'0 0.0
2015-Apr-30 00:24N 48°50' W 122°43'0 0.0
2015-Apr-29 23:30N 48°50' W 122°43'0 0.0
2015-Apr-29 22:18N 48°50' W 122°43'0 0.0
2015-Apr-29 21:27N 48°50' W 122°43'0 0.0
2015-Apr-29 20:18N 48°50' W 122°43'0 0.0
2015-Apr-29 19:30N 48°50' W 122°43'0 0.0
2015-Apr-29 18:30N 48°50' W 122°43'0 0.0
2015-Apr-29 17:33N 48°50' W 122°43'0 0.0
2015-Apr-29 16:27N 48°50' W 122°43'0 0.0
2015-Apr-29 15:30N 48°50' W 122°43'0 0.0
2015-Apr-29 14:30N 48°50' W 122°43'0 0.0
2015-Apr-29 13:33N 48°50' W 122°43'0 0.0
2015-Apr-29 12:33N 48°50' W 122°43'0 0.0
2015-Apr-29 11:33N 48°50' W 122°43'0 0.0
2015-Apr-29 10:30N 48°50' W 122°43'0 0.0
2015-Apr-29 09:27N 48°50' W 122°43'0 0.0
2015-Apr-29 08:33N 48°50' W 122°43'0 0.0
2015-Apr-29 07:33N 48°50' W 122°43'0 0.0
2015-Apr-29 06:33N 48°50' W 122°43'0 0.0
2015-Apr-29 05:30N 48°50' W 122°43'0 0.0
2015-Apr-29 04:33N 48°50' W 122°43'0 0.0
2015-Apr-29 03:33N 48°50' W 122°43'0 0.0
2015-Apr-29 02:09N 48°50' W 122°43'0 0.0
2015-Apr-29 00:33N 48°50' W 122°43'0 0.0
2015-Apr-28 23:33N 48°50' W 122°43'0 0.0
2015-Apr-28 22:27N 48°50' W 122°43'0 0.0
2015-Apr-28 21:18N 48°50' W 122°43'0 0.0
2015-Apr-28 20:30N 48°50' W 122°43'0 0.0
2015-Apr-28 19:24N 48°50' W 122°43'0 0.0
2015-Apr-28 18:18N 48°50' W 122°43'0 0.0
2015-Apr-28 13:24N 48°50' W 122°43'0 0.0
2015-Apr-28 12:24N 48°50' W 122°43'0 0.0
2015-Apr-28 11:06N 48°50' W 122°43'0 0.0
2015-Apr-28 10:33N 48°50' W 122°43'0 0.0
2015-Apr-28 08:18N 48°50' W 122°43'0 0.0
2015-Apr-28 06:06N 48°50' W 122°43'0 0.0
2015-Apr-28 05:30N 48°50' W 122°43'0 0.0
2015-Apr-28 04:24N 48°50' W 122°43'0 0.0
2015-Apr-28 02:30N 48°50' W 122°43'0 0.0
2015-Apr-27 17:21N 48°50' W 122°43'0 0.0
2015-Apr-27 08:18N 48°50' W 122°43'0 0.0
2015-Apr-27 07:24N 48°50' W 122°43'0 0.0
2015-Apr-27 05:24N 48°50' W 122°43'0 0.0
2015-Apr-27 02:30N 48°50' W 122°43'1 0.7
2015-Apr-27 01:33N 48°50' W 122°44'0 0.1
2015-Apr-27 00:31N 48°50' W 122°44'0 0.1
2015-Apr-26 23:28N 48°50' W 122°44'0 0.4
2015-Apr-26 22:22N 48°50' W 122°44'0 0.2
2015-Apr-26 21:28N 48°50' W 122°43'0 0.0
2015-Apr-26 20:28N 48°50' W 122°43'0 0.0
2015-Apr-26 19:04N 48°50' W 122°43'0 0.0
2015-Apr-26 18:22N 48°50' W 122°43'0 0.0
2015-Apr-26 17:28N 48°50' W 122°43'0 0.0
2015-Apr-26 16:28N 48°50' W 122°43'0 0.0
2015-Apr-26 15:28N 48°50' W 122°43'0 0.0
2015-Apr-26 14:28N 48°50' W 122°43'0 0.0
2015-Apr-26 13:28N 48°50' W 122°43'0 0.0
2015-Apr-26 12:28N 48°50' W 122°43'0 0.0
2015-Apr-26 11:25N 48°50' W 122°43'0 0.0
2015-Apr-26 10:28N 48°50' W 122°43'0 0.0
2015-Apr-26 09:31N 48°50' W 122°43'0 0.0
2015-Apr-26 08:31N 48°50' W 122°43'0 0.0
2015-Apr-26 07:31N 48°50' W 122°43'0 0.0
2015-Apr-26 06:28N 48°50' W 122°43'0 0.0
2015-Apr-26 05:33N 48°50' W 122°43'3 3.3
2015-Apr-26 04:33N 48°47' W 122°45'1211.8
2015-Apr-26 03:34N 48°36' W 122°45'1212.2
2015-Apr-26 02:33N 48°24' W 122°49'1312.5
2015-Apr-26 01:33N 48°17' W 123°05'1111.5
2015-Apr-26 00:34N 48°12' W 123°21'  

Dump ship's entire track history